createdAt,value
2023-05-16T00:00:25.942Z,11.4
2023-05-16T00:01:25.743Z,11.4
2023-05-16T00:02:25.785Z,11.3
2023-05-16T00:03:25.850Z,11.3
2023-05-16T00:04:25.797Z,11.3
2023-05-16T00:05:25.779Z,11.3
2023-05-16T00:06:25.742Z,11.3
2023-05-16T00:07:28.126Z,11.3
2023-05-16T00:08:31.249Z,11.3
2023-05-16T00:09:25.741Z,11.3
2023-05-16T00:10:25.912Z,11.2
2023-05-16T00:11:25.745Z,11.2
2023-05-16T00:12:25.739Z,11.2
2023-05-16T00:13:25.744Z,11.2
2023-05-16T00:14:25.738Z,11.2
2023-05-16T00:15:25.758Z,11.2
2023-05-16T00:16:25.922Z,11.2
2023-05-16T00:17:25.755Z,11.1
2023-05-16T00:18:25.743Z,11.2
2023-05-16T00:19:25.738Z,11.2
2023-05-16T00:20:25.917Z,11.1
2023-05-16T00:21:25.743Z,11.1
2023-05-16T00:22:25.765Z,11.1
2023-05-16T00:23:25.748Z,11.1
2023-05-16T00:24:25.816Z,11.1
2023-05-16T00:25:25.738Z,11.1
2023-05-16T00:26:25.749Z,11.1
2023-05-16T00:27:25.757Z,11.1
2023-05-16T00:28:28.189Z,11.1
2023-05-16T00:29:31.345Z,11.1
2023-05-16T00:30:25.933Z,11.1
2023-05-16T00:31:25.765Z,11.1
2023-05-16T00:32:25.812Z,11
2023-05-16T00:33:25.753Z,11
2023-05-16T00:34:25.781Z,11
2023-05-16T00:35:25.748Z,11
2023-05-16T00:36:25.764Z,11
2023-05-16T00:37:25.754Z,11
2023-05-16T00:38:25.757Z,11
2023-05-16T00:39:25.768Z,11
2023-05-16T00:40:25.909Z,10.9
2023-05-16T00:41:25.748Z,10.9
2023-05-16T00:42:25.760Z,10.9
2023-05-16T00:43:25.755Z,10.9
2023-05-16T00:44:25.758Z,10.9
2023-05-16T00:45:25.930Z,10.9
2023-05-16T00:46:25.782Z,10.9
2023-05-16T00:47:25.781Z,10.9
2023-05-16T00:48:25.754Z,10.8
2023-05-16T00:49:28.308Z,10.8
2023-05-16T00:50:31.512Z,10.8
2023-05-16T00:51:25.750Z,10.8
2023-05-16T00:52:25.742Z,10.8
2023-05-16T00:53:25.761Z,10.7
2023-05-16T00:54:25.748Z,10.7
2023-05-16T00:55:25.758Z,10.7
2023-05-16T00:57:25.744Z,10.7
2023-05-16T00:58:25.784Z,10.6
2023-05-16T00:59:25.749Z,10.6
2023-05-16T01:00:26.011Z,10.6
2023-05-16T01:01:25.819Z,10.6
2023-05-16T01:02:25.783Z,10.6
2023-05-16T01:03:25.919Z,10.6
2023-05-16T01:04:25.748Z,10.6
2023-05-16T01:05:26.089Z,10.6
2023-05-16T01:06:25.740Z,10.5
2023-05-16T01:07:25.746Z,10.4
2023-05-16T01:08:25.739Z,10.4
2023-05-16T01:09:25.749Z,10.4
2023-05-16T01:10:25.732Z,10.3
2023-05-16T01:11:28.592Z,10.3
2023-05-16T01:12:31.697Z,10.3
2023-05-16T01:13:25.743Z,10.3
2023-05-16T01:14:25.775Z,10.2
2023-05-16T01:15:25.869Z,10.2
2023-05-16T01:16:25.776Z,10.1
2023-05-16T01:17:25.786Z,10.1
2023-05-16T01:18:25.925Z,10.1
2023-05-16T01:19:26.124Z,10.1
2023-05-16T01:21:25.748Z,10
2023-05-16T01:22:25.735Z,10
2023-05-16T01:23:25.765Z,10
2023-05-16T01:24:25.750Z,10
2023-05-16T01:25:25.915Z,10
2023-05-16T01:26:25.748Z,10
2023-05-16T01:27:25.739Z,10
2023-05-16T01:28:25.738Z,10
2023-05-16T01:29:25.828Z,10
2023-05-16T01:30:25.772Z,10
2023-05-16T01:31:25.865Z,10
2023-05-16T01:32:28.845Z,10
2023-05-16T01:33:31.746Z,10
2023-05-16T01:34:25.739Z,10
2023-05-16T01:35:25.891Z,10
2023-05-16T01:36:25.744Z,10
2023-05-16T01:37:25.739Z,10.1
2023-05-16T01:38:25.740Z,10.1
2023-05-16T01:39:25.739Z,10.1
2023-05-16T01:40:25.755Z,10.1
2023-05-16T01:41:25.741Z,10.1
2023-05-16T01:42:25.737Z,10.1
2023-05-16T01:43:25.741Z,10.1
2023-05-16T01:44:25.746Z,10.1
2023-05-16T01:45:25.862Z,10.2
2023-05-16T01:46:25.773Z,10.2
2023-05-16T01:47:25.751Z,10.2
2023-05-16T01:48:25.741Z,10.2
2023-05-16T01:49:25.733Z,10.2
2023-05-16T01:50:25.745Z,10.2
2023-05-16T01:51:25.745Z,10.2
2023-05-16T01:52:25.741Z,10.2
2023-05-16T01:53:28.874Z,10.2
2023-05-16T01:54:31.864Z,10.2
2023-05-16T01:55:25.978Z,10.2
2023-05-16T01:56:25.743Z,10.2
2023-05-16T01:57:25.753Z,10.2
2023-05-16T01:58:25.743Z,10.2
2023-05-16T01:59:25.743Z,10.2
2023-05-16T02:00:25.750Z,10.2
2023-05-16T02:01:25.791Z,10.2
2023-05-16T02:02:25.774Z,10.2
2023-05-16T02:03:25.783Z,10.2
2023-05-16T02:04:25.745Z,10.2
2023-05-16T02:05:26.071Z,10.2
2023-05-16T02:06:25.740Z,10.2
2023-05-16T02:07:25.736Z,10.2
2023-05-16T02:08:25.755Z,10.2
2023-05-16T02:09:25.737Z,10.2
2023-05-16T02:10:25.750Z,10.2
2023-05-16T02:11:25.744Z,10.2
2023-05-16T02:13:25.954Z,10.2
2023-05-16T02:14:29.079Z,10.2
2023-05-16T02:15:31.950Z,10.2
2023-05-16T02:16:25.875Z,10.2
2023-05-16T02:17:25.827Z,10.2
2023-05-16T02:18:25.739Z,10.2
2023-05-16T02:19:25.733Z,10.2
2023-05-16T02:20:25.744Z,10.2
2023-05-16T02:21:25.748Z,10.2
2023-05-16T02:22:25.759Z,10.2
2023-05-16T02:23:25.744Z,10.2
2023-05-16T02:24:25.811Z,10.2
2023-05-16T02:25:25.856Z,10.2
2023-05-16T02:26:25.755Z,10.2
2023-05-16T02:27:25.758Z,10.1
2023-05-16T02:28:25.755Z,10.1
2023-05-16T02:29:25.762Z,10.1
2023-05-16T02:30:25.755Z,10
2023-05-16T02:31:25.785Z,9.9
2023-05-16T02:32:25.836Z,9.9
2023-05-16T02:33:25.758Z,9.8
2023-05-16T02:34:26.066Z,9.8
2023-05-16T02:35:29.225Z,9.8
2023-05-16T02:36:32.062Z,9.8
2023-05-16T02:37:25.744Z,9.8
2023-05-16T02:38:25.739Z,9.8
2023-05-16T02:39:25.753Z,9.8
2023-05-16T02:40:25.769Z,9.7
2023-05-16T02:41:25.743Z,9.7
2023-05-16T02:42:25.740Z,9.5
2023-05-16T02:43:25.760Z,9.4
2023-05-16T02:44:25.759Z,9.3
2023-05-16T02:45:25.992Z,9.2
2023-05-16T02:46:25.818Z,9.1
2023-05-16T02:47:25.762Z,9
2023-05-16T02:48:25.739Z,8.9
2023-05-16T02:49:25.760Z,8.8
2023-05-16T02:50:25.745Z,8.7
2023-05-16T02:51:25.737Z,8.6
2023-05-16T02:52:25.741Z,8.5
2023-05-16T02:53:25.737Z,8.4
2023-05-16T02:54:25.762Z,8.4
2023-05-16T02:55:26.148Z,8.4
2023-05-16T02:56:29.186Z,8.4
2023-05-16T02:57:32.148Z,8.4
2023-05-16T02:58:25.739Z,8.4
2023-05-16T02:59:25.766Z,8.3
2023-05-16T03:00:25.735Z,8.3
2023-05-16T03:01:25.761Z,8.2
2023-05-16T03:02:25.804Z,8.2
2023-05-16T03:03:25.835Z,8.2
2023-05-16T03:04:25.748Z,8.2
2023-05-16T03:05:27.117Z,8.2
2023-05-16T03:06:25.874Z,8.2
2023-05-16T03:07:25.735Z,8.2
2023-05-16T03:08:25.740Z,8.1
2023-05-16T03:09:25.744Z,8.1
2023-05-16T03:10:25.770Z,8.1
2023-05-16T03:11:25.745Z,8.1
2023-05-16T03:12:25.728Z,8.1
2023-05-16T03:13:25.740Z,8.1
2023-05-16T03:14:25.739Z,8.1
2023-05-16T03:15:25.810Z,8
2023-05-16T03:16:26.309Z,8
2023-05-16T03:17:29.356Z,8
2023-05-16T03:18:32.301Z,8
2023-05-16T03:19:25.797Z,8
2023-05-16T03:20:25.768Z,8
2023-05-16T03:21:25.740Z,8
2023-05-16T03:22:25.737Z,8
2023-05-16T03:23:25.763Z,8
2023-05-16T03:24:25.761Z,8
2023-05-16T03:25:25.895Z,8
2023-05-16T03:26:25.747Z,8
2023-05-16T03:27:25.746Z,8
2023-05-16T03:28:25.755Z,8
2023-05-16T03:29:25.764Z,8
2023-05-16T03:30:25.741Z,8
2023-05-16T03:31:25.755Z,8
2023-05-16T03:32:25.778Z,8
2023-05-16T03:33:25.750Z,8.1
2023-05-16T03:34:25.764Z,8.1
2023-05-16T03:35:26.025Z,8.1
2023-05-16T03:36:25.737Z,8.1
2023-05-16T03:37:26.394Z,8.1
2023-05-16T03:38:29.466Z,8.1
2023-05-16T03:39:32.486Z,8.1
2023-05-16T03:40:25.753Z,8.1
2023-05-16T03:41:25.753Z,8.1
2023-05-16T03:42:25.739Z,8.1
2023-05-16T03:43:25.748Z,8.1
2023-05-16T03:44:25.738Z,8.1
2023-05-16T03:45:25.959Z,8
2023-05-16T03:46:25.949Z,8
2023-05-16T03:47:25.787Z,8
2023-05-16T03:48:25.745Z,8
2023-05-16T03:49:25.739Z,8
2023-05-16T03:50:25.740Z,8
2023-05-16T03:51:25.747Z,8
2023-05-16T03:52:25.765Z,8
2023-05-16T03:53:25.755Z,8
2023-05-16T03:54:25.749Z,8
2023-05-16T03:55:25.941Z,8
2023-05-16T03:56:25.739Z,8
2023-05-16T03:57:25.766Z,8
2023-05-16T03:58:26.463Z,8
2023-05-16T03:59:29.376Z,8
2023-05-16T04:00:30.806Z,8
2023-05-16T04:01:25.747Z,8.1
2023-05-16T04:02:25.892Z,8.1
2023-05-16T04:03:25.749Z,8.1
2023-05-16T04:04:25.744Z,8.1
2023-05-16T04:05:26.091Z,8.1
2023-05-16T04:06:25.737Z,8.1
2023-05-16T04:07:25.757Z,8.2
2023-05-16T04:08:25.804Z,8.2
2023-05-16T04:09:25.738Z,8.2
2023-05-16T04:10:25.757Z,8.2
2023-05-16T04:11:25.737Z,8.2
2023-05-16T04:12:25.758Z,8.2
2023-05-16T04:13:25.805Z,8.2
2023-05-16T04:14:25.742Z,8.3
2023-05-16T04:15:25.901Z,8.3
2023-05-16T04:16:25.791Z,8.3
2023-05-16T04:17:25.829Z,8.3
2023-05-16T04:18:25.749Z,8.3
2023-05-16T04:19:25.767Z,8.3
2023-05-16T04:20:26.679Z,8.3
2023-05-16T04:21:29.725Z,8.3
2023-05-16T04:22:32.722Z,8.3
2023-05-16T04:23:25.747Z,8.3
2023-05-16T04:24:25.748Z,8.3
2023-05-16T04:25:25.861Z,8.3
2023-05-16T04:26:25.749Z,8.3
2023-05-16T04:27:25.743Z,8.3
2023-05-16T04:28:25.738Z,8.4
2023-05-16T04:29:25.763Z,8.4
2023-05-16T04:30:25.750Z,8.4
2023-05-16T04:31:25.758Z,8.4
2023-05-16T04:32:25.761Z,8.4
2023-05-16T04:33:25.739Z,8.3
2023-05-16T04:34:25.758Z,8.3
2023-05-16T04:35:25.937Z,8.3
2023-05-16T04:36:25.740Z,8.3
2023-05-16T04:37:25.749Z,8.3
2023-05-16T04:38:25.744Z,8.3
2023-05-16T04:39:25.745Z,8.3
2023-05-16T04:40:25.743Z,8.3
2023-05-16T04:41:26.826Z,8.3
2023-05-16T04:42:29.923Z,8.3
2023-05-16T04:43:32.862Z,8.3
2023-05-16T04:44:25.744Z,8.3
2023-05-16T04:45:25.900Z,8.3
2023-05-16T04:46:25.830Z,8.3
2023-05-16T04:47:25.777Z,8.3
2023-05-16T04:48:25.745Z,8.3
2023-05-16T04:49:25.755Z,8.3
2023-05-16T04:50:25.745Z,8.3
2023-05-16T04:51:25.743Z,8.3
2023-05-16T04:52:25.761Z,8.3
2023-05-16T04:53:25.738Z,8.3
2023-05-16T04:54:25.738Z,8.4
2023-05-16T04:55:25.834Z,8.3
2023-05-16T04:56:25.743Z,8.3
2023-05-16T04:57:25.762Z,8.3
2023-05-16T04:58:25.753Z,8.3
2023-05-16T04:59:25.744Z,8.3
2023-05-16T05:00:25.932Z,8.3
2023-05-16T05:01:25.779Z,8.4
2023-05-16T05:02:26.924Z,8.4
2023-05-16T05:03:29.958Z,8.4
2023-05-16T05:04:32.457Z,8.4
2023-05-16T05:05:25.795Z,8.4
2023-05-16T05:06:25.892Z,8.4
2023-05-16T05:07:25.756Z,8.4
2023-05-16T05:08:25.745Z,8.4
2023-05-16T05:09:25.743Z,8.4
2023-05-16T05:10:25.741Z,8.4
2023-05-16T05:11:25.738Z,8.4
2023-05-16T05:12:25.749Z,8.4
2023-05-16T05:13:25.748Z,8.4
2023-05-16T05:14:25.752Z,8.4
2023-05-16T05:15:25.902Z,8.4
2023-05-16T05:16:25.744Z,8.4
2023-05-16T05:18:25.782Z,8.4
2023-05-16T05:19:25.808Z,8.4
2023-05-16T05:20:25.744Z,8.4
2023-05-16T05:21:25.744Z,8.4
2023-05-16T05:22:25.740Z,8.4
2023-05-16T05:23:26.969Z,8.4
2023-05-16T05:24:30.043Z,8.4
2023-05-16T05:25:34.064Z,8.4
2023-05-16T05:26:25.745Z,8.4
2023-05-16T05:27:25.743Z,8.4
2023-05-16T05:28:25.769Z,8.4
2023-05-16T05:29:25.737Z,8.4
2023-05-16T05:30:25.743Z,8.4
2023-05-16T05:31:25.766Z,8.4
2023-05-16T05:32:25.759Z,8.3
2023-05-16T05:33:25.765Z,8.4
2023-05-16T05:34:25.744Z,8.4
2023-05-16T05:35:26.058Z,8.4
2023-05-16T05:36:25.738Z,8.4
2023-05-16T05:37:25.756Z,8.4
2023-05-16T05:38:25.781Z,8.3
2023-05-16T05:39:25.748Z,8.3
2023-05-16T05:40:25.747Z,8.3
2023-05-16T05:41:25.748Z,8.3
2023-05-16T05:42:25.733Z,8.3
2023-05-16T05:43:25.785Z,8.3
2023-05-16T05:44:27.039Z,8.3
2023-05-16T05:45:30.281Z,8.2
2023-05-16T05:46:33.435Z,8.2
2023-05-16T05:47:25.781Z,8.1
2023-05-16T05:48:25.740Z,8.1
2023-05-16T05:49:25.734Z,8.1
2023-05-16T05:50:25.755Z,8
2023-05-16T05:51:25.739Z,8
2023-05-16T05:52:25.734Z,8
2023-05-16T05:53:25.742Z,7.9
2023-05-16T05:54:25.750Z,7.9
2023-05-16T05:55:25.973Z,7.9
2023-05-16T05:56:25.740Z,7.9
2023-05-16T05:57:25.734Z,8
2023-05-16T05:58:25.806Z,8
2023-05-16T05:59:25.746Z,8
2023-05-16T06:00:25.748Z,8.1
2023-05-16T06:01:25.740Z,8.2
2023-05-16T06:02:25.814Z,8.4
2023-05-16T06:03:25.790Z,8.4
2023-05-16T06:04:25.767Z,8.6
2023-05-16T06:05:25.943Z,8.7
2023-05-16T06:06:28.492Z,8.7
2023-05-16T06:07:31.879Z,8.9
2023-05-16T06:08:25.750Z,9
2023-05-16T06:09:25.741Z,9
2023-05-16T06:10:25.745Z,9.1
2023-05-16T06:11:25.744Z,9.1
2023-05-16T06:12:25.742Z,9.2
2023-05-16T06:13:25.745Z,9.2
2023-05-16T06:14:25.746Z,9.2
2023-05-16T06:15:25.883Z,9.2
2023-05-16T06:16:25.820Z,9.3
2023-05-16T06:17:25.764Z,9.4
2023-05-16T06:18:25.743Z,9.5
2023-05-16T06:19:25.859Z,9.5
2023-05-16T06:20:25.762Z,9.6
2023-05-16T06:21:25.768Z,9.7
2023-05-16T06:22:25.738Z,9.7
2023-05-16T06:23:25.749Z,9.8
2023-05-16T06:24:25.753Z,9.8
2023-05-16T06:25:25.974Z,9.8
2023-05-16T06:26:27.317Z,9.8
2023-05-16T06:27:30.358Z,9.9
2023-05-16T06:28:33.088Z,9.9
2023-05-16T06:29:25.738Z,10
2023-05-16T06:30:25.744Z,10.1
2023-05-16T06:31:25.781Z,10.2
2023-05-16T06:32:25.785Z,10.3
2023-05-16T06:33:25.760Z,10.3
2023-05-16T06:34:25.740Z,10.3
2023-05-16T06:35:25.954Z,10.4
2023-05-16T06:36:25.761Z,10.3
2023-05-16T06:37:25.763Z,10.3
2023-05-16T06:38:25.747Z,10.3
2023-05-16T06:39:25.748Z,10.3
2023-05-16T06:40:25.873Z,10.3
2023-05-16T06:41:25.746Z,10.3
2023-05-16T06:42:25.759Z,10.2
2023-05-16T06:43:25.752Z,10.3
2023-05-16T06:44:25.759Z,10.3
2023-05-16T06:45:25.913Z,10.3
2023-05-16T06:46:25.772Z,10.3
2023-05-16T06:47:27.409Z,10.3
2023-05-16T06:48:30.573Z,10.4
2023-05-16T06:49:33.157Z,10.4
2023-05-16T06:50:25.747Z,10.5
2023-05-16T06:51:25.763Z,10.6
2023-05-16T06:52:25.762Z,10.6
2023-05-16T06:53:25.755Z,10.6
2023-05-16T06:54:25.750Z,10.6
2023-05-16T06:55:25.967Z,10.6
2023-05-16T06:56:25.745Z,10.6
2023-05-16T06:57:25.744Z,10.7
2023-05-16T06:58:25.772Z,10.7
2023-05-16T06:59:27.450Z,10.7
2023-05-16T07:00:25.736Z,10.7
2023-05-16T07:01:25.782Z,10.7
2023-05-16T07:02:25.827Z,10.8
2023-05-16T07:03:25.816Z,10.8
2023-05-16T07:04:25.749Z,10.8
2023-05-16T07:05:25.833Z,10.8
2023-05-16T07:06:25.738Z,10.8
2023-05-16T07:07:25.750Z,10.7
2023-05-16T07:08:27.440Z,10.7
2023-05-16T07:09:30.598Z,10.7
2023-05-16T07:10:26.014Z,10.6
2023-05-16T07:11:25.743Z,10.6
2023-05-16T07:12:25.758Z,10.6
2023-05-16T07:13:25.747Z,10.5
2023-05-16T07:14:25.738Z,10.5
2023-05-16T07:15:25.828Z,10.4
2023-05-16T07:16:25.787Z,10.4
2023-05-16T07:17:25.784Z,10.4
2023-05-16T07:18:25.739Z,10.3
2023-05-16T07:19:25.847Z,10.3
2023-05-16T07:20:25.778Z,10.2
2023-05-16T07:21:25.748Z,10.2
2023-05-16T07:22:25.760Z,10.2
2023-05-16T07:23:25.753Z,10.2
2023-05-16T07:24:25.737Z,10.1
2023-05-16T07:25:25.859Z,10.1
2023-05-16T07:26:25.748Z,10.1
2023-05-16T07:27:25.754Z,10
2023-05-16T07:28:25.744Z,10
2023-05-16T07:29:25.743Z,10
2023-05-16T07:30:27.706Z,10
2023-05-16T07:31:30.691Z,10.1
2023-05-16T07:32:25.778Z,10.2
2023-05-16T07:33:25.744Z,10.3
2023-05-16T07:34:25.748Z,10.4
2023-05-16T07:35:25.862Z,10.5
2023-05-16T07:36:25.781Z,10.6
2023-05-16T07:37:25.755Z,10.6
2023-05-16T07:38:25.741Z,10.6
2023-05-16T07:39:25.739Z,10.6
2023-05-16T07:40:25.745Z,10.6
2023-05-16T07:41:25.748Z,10.6
2023-05-16T07:42:25.789Z,10.7
2023-05-16T07:43:26.212Z,10.6
2023-05-16T07:44:25.733Z,10.6
2023-05-16T07:45:25.913Z,10.6
2023-05-16T07:46:25.790Z,10.6
2023-05-16T07:47:25.856Z,10.6
2023-05-16T07:48:25.747Z,10.6
2023-05-16T07:49:25.736Z,10.6
2023-05-16T07:50:25.737Z,10.6
2023-05-16T07:51:27.257Z,10.6
2023-05-16T07:52:30.304Z,10.6
2023-05-16T07:53:25.748Z,10.6
2023-05-16T07:54:26.806Z,10.6
2023-05-16T07:55:25.916Z,10.6
2023-05-16T07:56:25.746Z,10.6
2023-05-16T07:57:25.757Z,10.6
2023-05-16T07:58:25.770Z,10.6
2023-05-16T07:59:25.747Z,10.6
2023-05-16T08:00:25.748Z,10.6
2023-05-16T08:01:25.740Z,10.6
2023-05-16T08:02:25.856Z,10.6
2023-05-16T08:03:25.861Z,10.6
2023-05-16T08:04:25.738Z,10.6
2023-05-16T08:05:25.885Z,10.6
2023-05-16T08:06:25.739Z,10.7
2023-05-16T08:07:25.742Z,10.7
2023-05-16T08:08:25.742Z,10.8
2023-05-16T08:09:25.740Z,10.9
2023-05-16T08:10:25.743Z,11
2023-05-16T08:11:25.740Z,11
2023-05-16T08:12:27.942Z,11
2023-05-16T08:13:30.904Z,10.9
2023-05-16T08:14:25.749Z,10.9
2023-05-16T08:15:25.896Z,10.9
2023-05-16T08:16:25.781Z,10.9
2023-05-16T08:17:25.783Z,11
2023-05-16T08:18:25.743Z,11.1
2023-05-16T08:19:25.841Z,11.2
2023-05-16T08:20:25.764Z,11.3
2023-05-16T08:21:25.749Z,11.5
2023-05-16T08:22:25.772Z,11.6
2023-05-16T08:23:25.734Z,11.7
2023-05-16T08:24:25.735Z,11.7
2023-05-16T08:25:25.973Z,11.8
2023-05-16T08:26:25.755Z,11.8
2023-05-16T08:27:26.764Z,11.9
2023-05-16T08:28:25.741Z,11.8
2023-05-16T08:29:25.901Z,11.8
2023-05-16T08:30:25.757Z,11.7
2023-05-16T08:31:25.789Z,11.7
2023-05-16T08:32:25.788Z,11.6
2023-05-16T08:33:28.009Z,11.6
2023-05-16T08:34:31.058Z,11.6
2023-05-16T08:35:26.057Z,11.6
2023-05-16T08:36:25.747Z,11.6
2023-05-16T08:37:25.730Z,11.6
2023-05-16T08:38:25.738Z,11.7
2023-05-16T08:39:25.739Z,11.7
2023-05-16T08:40:25.844Z,11.8
2023-05-16T08:41:25.735Z,11.9
2023-05-16T08:42:25.732Z,12
2023-05-16T08:43:27.078Z,12.1
2023-05-16T08:44:25.740Z,12.1
2023-05-16T08:45:25.787Z,12.2
2023-05-16T08:46:25.768Z,12.2
2023-05-16T08:47:25.739Z,12.2
2023-05-16T08:48:25.772Z,12.3
2023-05-16T08:49:25.750Z,12.4
2023-05-16T08:50:25.753Z,12.5
2023-05-16T08:51:25.747Z,12.5
2023-05-16T08:52:25.749Z,12.5
2023-05-16T08:53:27.677Z,12.5
2023-05-16T08:54:28.369Z,12.5
2023-05-16T08:55:31.121Z,12.4
2023-05-16T08:56:25.738Z,12.3
2023-05-16T08:57:25.750Z,12.2
2023-05-16T08:58:25.764Z,12.1
2023-05-16T08:59:25.766Z,12.1
2023-05-16T09:00:25.997Z,12
2023-05-16T09:01:25.776Z,12
2023-05-16T09:02:25.753Z,11.9
2023-05-16T09:03:25.815Z,12
2023-05-16T09:04:26.863Z,12
2023-05-16T09:05:25.910Z,12.1
2023-05-16T09:06:25.745Z,12.3
2023-05-16T09:07:25.739Z,12.3
2023-05-16T09:08:25.758Z,12.4
2023-05-16T09:09:25.764Z,12.4
2023-05-16T09:10:25.745Z,12.5
2023-05-16T09:11:25.783Z,12.5
2023-05-16T09:12:25.738Z,12.5
2023-05-16T09:13:25.750Z,12.5
2023-05-16T09:14:25.782Z,12.5
2023-05-16T09:15:28.303Z,12.5
2023-05-16T09:16:31.211Z,12.5
2023-05-16T09:17:36.253Z,12.5
2023-05-16T09:18:25.789Z,12.6
2023-05-16T09:19:25.792Z,12.6
2023-05-16T09:20:25.749Z,12.7
2023-05-16T09:21:25.738Z,12.7
2023-05-16T09:22:25.744Z,12.7
2023-05-16T09:23:25.747Z,12.7
2023-05-16T09:24:25.760Z,12.8
2023-05-16T09:25:30.005Z,12.8
2023-05-16T09:26:25.745Z,12.8
2023-05-16T09:27:25.744Z,12.8
2023-05-16T09:28:25.742Z,12.8
2023-05-16T09:29:25.756Z,12.7
2023-05-16T09:30:25.748Z,12.7
2023-05-16T09:31:25.790Z,12.6
2023-05-16T09:32:25.841Z,12.6
2023-05-16T09:33:25.743Z,12.5
2023-05-16T09:34:25.749Z,12.4
2023-05-16T09:35:39.515Z,12.3
2023-05-16T09:36:28.193Z,12.3
2023-05-16T09:37:31.192Z,12.3
2023-05-16T09:38:25.757Z,12.2
2023-05-16T09:39:25.743Z,12.2
2023-05-16T09:40:25.747Z,12.2
2023-05-16T09:41:25.754Z,12.2
2023-05-16T09:42:25.770Z,12.2
2023-05-16T09:43:25.753Z,12.3
2023-05-16T09:44:25.738Z,12.3
2023-05-16T09:45:25.894Z,12.4
2023-05-16T09:46:25.769Z,12.5
2023-05-16T09:47:25.773Z,12.6
2023-05-16T09:48:25.748Z,12.7
2023-05-16T09:49:25.747Z,12.8
2023-05-16T09:50:25.744Z,13
2023-05-16T09:51:25.750Z,13
2023-05-16T09:52:25.738Z,13.1
2023-05-16T09:53:25.882Z,13.1
2023-05-16T09:54:25.741Z,13.1
2023-05-16T09:55:25.851Z,13.1
2023-05-16T09:56:25.748Z,13.1
2023-05-16T09:57:28.357Z,13.1
2023-05-16T09:58:31.310Z,13.2
2023-05-16T09:59:25.747Z,13.3
2023-05-16T10:00:25.747Z,13.3
2023-05-16T10:01:25.793Z,13.3
2023-05-16T10:02:25.790Z,13.3
2023-05-16T10:03:25.795Z,13.4
2023-05-16T10:04:25.864Z,13.5
2023-05-16T10:05:25.825Z,13.5
2023-05-16T10:06:25.786Z,13.6
2023-05-16T10:07:25.742Z,13.6
2023-05-16T10:08:25.760Z,13.6
2023-05-16T10:09:25.762Z,13.6
2023-05-16T10:10:25.753Z,13.7
2023-05-16T10:11:25.766Z,13.7
2023-05-16T10:12:25.743Z,13.6
2023-05-16T10:13:25.740Z,13.6
2023-05-16T10:14:25.740Z,13.6
2023-05-16T10:15:26.328Z,13.6
2023-05-16T10:16:26.230Z,13.6
2023-05-16T10:17:25.738Z,13.6
2023-05-16T10:18:28.562Z,13.6
2023-05-16T10:19:31.415Z,13.5
2023-05-16T10:20:25.823Z,13.5
2023-05-16T10:21:25.747Z,13.4
2023-05-16T10:22:25.755Z,13.3
2023-05-16T10:23:25.742Z,13.4
2023-05-16T10:24:25.744Z,13.3
2023-05-16T10:25:25.943Z,13.4
2023-05-16T10:26:25.743Z,13.4
2023-05-16T10:27:25.782Z,13.4
2023-05-16T10:28:25.746Z,13.5
2023-05-16T10:29:25.738Z,13.5
2023-05-16T10:30:25.734Z,13.6
2023-05-16T10:31:25.779Z,13.7
2023-05-16T10:32:25.938Z,13.9
2023-05-16T10:33:25.772Z,14
2023-05-16T10:34:25.744Z,14.1
2023-05-16T10:35:25.892Z,14.2
2023-05-16T10:36:25.760Z,14.3
2023-05-16T10:37:25.747Z,14.4
2023-05-16T10:38:25.752Z,14.4
2023-05-16T10:39:25.911Z,14.5
2023-05-16T10:40:28.553Z,14.5
2023-05-16T10:41:31.528Z,14.5
2023-05-16T10:42:25.739Z,14.5
2023-05-16T10:43:25.734Z,14.5
2023-05-16T10:44:25.751Z,14.5
2023-05-16T10:45:25.812Z,14.4
2023-05-16T10:46:25.812Z,14.4
2023-05-16T10:47:25.740Z,14.3
2023-05-16T10:48:25.810Z,14.2
2023-05-16T10:49:25.758Z,14.1
2023-05-16T10:50:25.742Z,14
2023-05-16T10:51:25.748Z,14
2023-05-16T10:52:25.743Z,13.9
2023-05-16T10:53:25.740Z,13.8
2023-05-16T10:54:25.747Z,13.7
2023-05-16T10:55:25.869Z,13.7
2023-05-16T10:56:25.759Z,13.7
2023-05-16T10:57:25.740Z,13.7
2023-05-16T10:58:25.774Z,13.7
2023-05-16T11:00:25.735Z,13.8
2023-05-16T11:01:28.257Z,13.8
2023-05-16T11:02:31.259Z,13.9
2023-05-16T11:04:25.741Z,14.1
2023-05-16T11:05:25.884Z,14.2
2023-05-16T11:06:25.740Z,14.2
2023-05-16T11:07:25.742Z,14.3
2023-05-16T11:08:25.734Z,14.3
2023-05-16T11:09:25.735Z,14.4
2023-05-16T11:10:25.735Z,14.5
2023-05-16T11:11:25.737Z,14.6
2023-05-16T11:12:25.741Z,14.6
2023-05-16T11:13:25.738Z,14.6
2023-05-16T11:14:25.747Z,14.6
2023-05-16T11:15:25.858Z,14.6
2023-05-16T11:16:25.774Z,14.6
2023-05-16T11:17:25.792Z,14.5
2023-05-16T11:18:25.781Z,14.5
2023-05-16T11:19:25.783Z,14.5
2023-05-16T11:20:25.738Z,14.5
2023-05-16T11:21:25.945Z,14.5
2023-05-16T11:22:28.833Z,14.5
2023-05-16T11:23:31.704Z,14.5
2023-05-16T11:25:25.783Z,14.6
2023-05-16T11:26:25.750Z,14.6
2023-05-16T11:27:25.740Z,14.8
2023-05-16T11:28:25.827Z,14.9
2023-05-16T11:29:25.743Z,14.9
2023-05-16T11:30:25.788Z,15
2023-05-16T11:32:25.770Z,15.1
2023-05-16T11:33:25.780Z,15.1
2023-05-16T11:34:25.899Z,15.1
2023-05-16T11:35:26.099Z,15.1
2023-05-16T11:36:25.872Z,15.1
2023-05-16T11:37:25.788Z,15.1
2023-05-16T11:38:25.949Z,15.1
2023-05-16T11:39:25.886Z,15
2023-05-16T11:40:26.070Z,15
2023-05-16T11:41:25.973Z,15
2023-05-16T11:42:26.077Z,15
2023-05-16T11:43:29.027Z,15
2023-05-16T11:44:31.845Z,15.1
2023-05-16T11:45:26.136Z,15.1
2023-05-16T11:46:25.788Z,15.2
2023-05-16T11:47:25.765Z,15.2
2023-05-16T11:48:35.508Z,15.3
2023-05-16T11:49:25.751Z,15.3
2023-05-16T11:50:25.745Z,15.2
2023-05-16T11:51:25.754Z,15.3
2023-05-16T11:52:25.798Z,15.4
2023-05-16T11:53:25.738Z,15.4
2023-05-16T11:54:25.741Z,15.4
2023-05-16T11:55:40.021Z,15.5
2023-05-16T11:56:25.750Z,15.5
2023-05-16T11:57:25.742Z,15.5
2023-05-16T11:58:25.747Z,15.6
2023-05-16T11:59:25.763Z,15.6
2023-05-16T12:00:25.761Z,15.6
2023-05-16T12:01:25.746Z,15.7
2023-05-16T12:02:25.844Z,15.7
2023-05-16T12:03:26.657Z,15.7
2023-05-16T12:04:29.087Z,15.7
2023-05-16T12:05:32.424Z,15.8
2023-05-16T12:06:25.740Z,15.8
2023-05-16T12:07:25.866Z,15.8
2023-05-16T12:08:25.814Z,15.7
2023-05-16T12:09:25.751Z,15.7
2023-05-16T12:10:25.782Z,15.7
2023-05-16T12:11:25.738Z,15.7
2023-05-16T12:12:25.738Z,15.7
2023-05-16T12:13:25.751Z,15.7
2023-05-16T12:14:25.811Z,15.7
2023-05-16T12:15:25.911Z,15.7
2023-05-16T12:16:25.821Z,15.7
2023-05-16T12:17:25.883Z,15.7
2023-05-16T12:18:25.934Z,15.6
2023-05-16T12:19:25.788Z,15.6
2023-05-16T12:20:25.748Z,15.5
2023-05-16T12:21:25.765Z,15.5
2023-05-16T12:22:25.762Z,15.4
2023-05-16T12:23:25.748Z,15.4
2023-05-16T12:24:26.974Z,15.3
2023-05-16T12:25:29.287Z,15.3
2023-05-16T12:26:32.048Z,15.3
2023-05-16T12:27:25.753Z,15.3
2023-05-16T12:28:25.754Z,15.3
2023-05-16T12:29:25.747Z,15.3
2023-05-16T12:30:25.921Z,15.4
2023-05-16T12:31:31.468Z,15.4
2023-05-16T12:32:25.775Z,15.4
2023-05-16T12:33:25.798Z,15.5
2023-05-16T12:34:25.743Z,15.5
2023-05-16T12:35:25.900Z,15.6
2023-05-16T12:36:25.742Z,15.5
2023-05-16T12:37:25.736Z,15.5
2023-05-16T12:38:25.746Z,15.5
2023-05-16T12:39:25.750Z,15.5
2023-05-16T12:40:25.815Z,15.5
2023-05-16T12:41:25.772Z,15.5
2023-05-16T12:42:25.746Z,15.5
2023-05-16T12:43:25.750Z,15.5
2023-05-16T12:44:25.778Z,15.5
2023-05-16T12:45:26.228Z,15.5
2023-05-16T12:46:29.228Z,15.5
2023-05-16T12:47:32.175Z,15.5
2023-05-16T12:48:25.753Z,15.5
2023-05-16T12:49:25.769Z,15.5
2023-05-16T12:50:25.880Z,15.5
2023-05-16T12:51:25.775Z,15.4
2023-05-16T12:52:25.746Z,15.4
2023-05-16T12:53:25.768Z,15.3
2023-05-16T12:54:25.759Z,15.2
2023-05-16T12:55:25.745Z,15.1
2023-05-16T12:56:25.927Z,15.1
2023-05-16T12:57:25.786Z,15
2023-05-16T12:58:25.797Z,14.9
2023-05-16T12:59:25.749Z,14.9
2023-05-16T13:00:25.903Z,14.9
2023-05-16T13:01:25.882Z,14.9
2023-05-16T13:02:25.913Z,14.9
2023-05-16T13:03:26.069Z,14.9
2023-05-16T13:04:25.762Z,14.8
2023-05-16T13:05:25.776Z,14.8
2023-05-16T13:06:26.330Z,14.8
2023-05-16T13:07:29.228Z,14.8
2023-05-16T13:08:32.191Z,14.8
2023-05-16T13:09:25.746Z,14.8
2023-05-16T13:10:25.910Z,14.8
2023-05-16T13:11:25.767Z,14.8
2023-05-16T13:12:26.110Z,14.8
2023-05-16T13:13:35.746Z,14.8
2023-05-16T13:14:25.746Z,14.7
2023-05-16T13:15:25.996Z,14.7
2023-05-16T13:16:25.848Z,14.6
2023-05-16T13:17:25.820Z,14.6
2023-05-16T13:18:25.774Z,14.5
2023-05-16T13:19:25.993Z,14.5
2023-05-16T13:20:25.845Z,14.4
2023-05-16T13:21:25.814Z,14.4
2023-05-16T13:22:25.845Z,14.4
2023-05-16T13:23:25.813Z,14.4
2023-05-16T13:24:25.774Z,14.4
2023-05-16T13:25:25.805Z,14.4
2023-05-16T13:26:25.762Z,14.5
2023-05-16T13:27:26.496Z,14.5
2023-05-16T13:28:29.410Z,14.5
2023-05-16T13:29:32.335Z,14.5
2023-05-16T13:30:25.744Z,14.6
2023-05-16T13:31:25.770Z,14.6
2023-05-16T13:32:25.789Z,14.6
2023-05-16T13:33:25.742Z,14.6
2023-05-16T13:34:25.742Z,14.7
2023-05-16T13:35:25.877Z,14.7
2023-05-16T13:36:25.757Z,14.7
2023-05-16T13:37:25.772Z,14.7
2023-05-16T13:38:25.739Z,14.7
2023-05-16T13:39:25.746Z,14.8
2023-05-16T13:40:25.735Z,14.8